createdAt,value
2023-11-22T00:00:04.721Z,5.47
2023-11-22T00:05:12.881Z,5.90
2023-11-22T00:10:16.337Z,5.53
2023-11-22T00:15:22.107Z,5.60
2023-11-22T00:20:25.585Z,6.27
2023-11-22T00:25:29.084Z,5.80
2023-11-22T00:30:33.808Z,6.50
2023-11-22T00:35:37.422Z,7.23
2023-11-22T00:40:41.463Z,5.70
2023-11-22T00:45:46.388Z,5.97
2023-11-22T00:50:50.120Z,6.23
2023-11-22T00:55:54.206Z,5.77
2023-11-22T01:00:59.081Z,6.17
2023-11-22T01:06:02.417Z,6.33
2023-11-22T01:11:07.075Z,5.70
2023-11-22T01:16:12.202Z,6.13
2023-11-22T01:21:15.519Z,6.37
2023-11-22T01:26:19.192Z,6.23
2023-11-22T01:31:24.590Z,6.40
2023-11-22T01:36:28.797Z,6.23
2023-11-22T01:41:32.287Z,6.43
2023-11-22T01:46:37.188Z,6.07
2023-11-22T01:51:41.734Z,6.10
2023-11-22T01:56:45.146Z,5.63
2023-11-22T02:01:53.636Z,6.43
2023-11-22T02:06:57.439Z,5.80
2023-11-22T02:12:00.725Z,5.57
2023-11-22T02:17:06.840Z,5.13
2023-11-22T02:22:10.310Z,5.77
2023-11-22T02:27:15.961Z,5.43
2023-11-22T02:32:20.276Z,5.80
2023-11-22T02:37:23.936Z,5.87
2023-11-22T02:42:28.708Z,6.03
2023-11-22T02:47:32.147Z,5.50
2023-11-22T02:52:35.524Z,6.17
2023-11-22T02:57:41.085Z,5.80
2023-11-22T03:02:44.668Z,7.23
2023-11-22T03:07:48.226Z,6.57
2023-11-22T03:12:53.106Z,6.87
2023-11-22T03:17:56.954Z,6.70
2023-11-22T03:23:01.223Z,6.30
2023-11-22T03:28:07.606Z,6.00
2023-11-22T03:33:10.993Z,6.70
2023-11-22T03:38:14.490Z,6.20
2023-11-22T03:43:19.241Z,6.53
2023-11-22T03:48:23.787Z,7.03
2023-11-22T03:53:27.345Z,7.00
2023-11-22T03:58:32.191Z,6.27
2023-11-22T04:03:35.948Z,6.60
2023-11-22T04:08:39.562Z,6.23
2023-11-22T04:13:44.430Z,7.60
2023-11-22T04:18:48.215Z,6.67
2023-11-22T04:23:52.273Z,7.23
2023-11-22T04:28:57.306Z,6.13
2023-11-22T04:34:01.798Z,7.43
2023-11-22T04:39:05.750Z,7.00
2023-11-22T04:44:10.762Z,5.90
2023-11-22T04:49:14.720Z,6.53
2023-11-22T04:54:18.319Z,6.17
2023-11-22T04:59:23.042Z,5.77
2023-11-22T05:10:50.467Z,7.00
2023-11-22T05:16:02.797Z,4.43
2023-11-22T05:27:52.225Z,4.77
2023-11-22T05:33:20.682Z,5.80
2023-11-22T05:38:35.654Z,4.87
2023-11-22T05:56:41.115Z,5.47
2023-11-22T06:01:44.548Z,5.67
2023-11-22T06:06:50.512Z,5.47
2023-11-22T06:11:55.994Z,6.03
2023-11-22T06:16:59.478Z,5.13
2023-11-22T06:22:03.507Z,5.77
2023-11-22T06:27:08.437Z,5.97
2023-11-22T06:32:11.876Z,5.43
2023-11-22T06:37:17.224Z,6.00
2023-11-22T06:42:22.288Z,5.73
2023-11-22T06:47:27.694Z,6.07
2023-11-22T06:52:31.186Z,5.97
2023-11-22T06:57:36.254Z,6.63
2023-11-22T07:02:39.814Z,5.17
2023-11-22T07:07:43.264Z,5.60
2023-11-22T07:12:49.160Z,6.17
2023-11-22T07:17:52.635Z,5.63
2023-11-22T07:22:58.816Z,5.17
2023-11-22T07:28:03.754Z,4.17
2023-11-22T07:33:07.636Z,4.73
2023-11-22T07:38:12.784Z,5.03
2023-11-22T07:43:17.683Z,5.30
2023-11-22T07:48:24.242Z,5.77
2023-11-22T07:53:30.568Z,5.50
2023-11-22T07:58:37.038Z,8.53
2023-11-22T08:03:42.101Z,5.93
2023-11-22T08:08:47.573Z,5.40
2023-11-22T08:13:52.576Z,6.27
2023-11-22T08:18:57.867Z,6.00
2023-11-22T08:24:01.690Z,5.97
2023-11-22T08:29:06.478Z,5.47
2023-11-22T08:34:10.306Z,5.60
2023-11-22T08:39:13.777Z,5.43
2023-11-22T08:44:18.590Z,6.70
2023-11-22T08:49:22.009Z,7.03
2023-11-22T08:54:25.417Z,6.27
2023-11-22T08:59:30.462Z,7.00
2023-11-22T09:04:33.846Z,5.80
2023-11-22T09:09:37.519Z,5.90
2023-11-22T09:14:43.706Z,4.70
2023-11-22T09:19:47.075Z,4.60
2023-11-22T09:24:50.496Z,5.57
2023-11-22T09:29:55.794Z,4.40
2023-11-22T09:34:59.393Z,7.40
2023-11-22T09:40:04.156Z,5.13
2023-11-22T09:45:10.875Z,5.50
2023-11-22T09:50:16.907Z,4.93
2023-11-22T09:55:21.404Z,4.37
2023-11-22T10:00:27.914Z,4.80
2023-11-22T10:05:31.789Z,5.47
2023-11-22T10:10:36.858Z,5.23
2023-11-22T10:15:41.734Z,5.63
2023-11-22T10:20:47.820Z,5.40
2023-11-22T10:25:52.910Z,6.20
2023-11-22T10:30:57.687Z,5.57
2023-11-22T10:36:01.102Z,6.83
2023-11-22T10:41:05.757Z,6.57
2023-11-22T10:46:11.447Z,6.20
2023-11-22T10:51:15.826Z,6.07
2023-11-22T10:56:22.609Z,6.50
2023-11-22T11:01:30.514Z,6.70
2023-11-22T11:06:35.284Z,6.93
2023-11-22T11:11:40.247Z,6.87
2023-11-22T11:16:49.364Z,8.00
2023-11-22T11:21:52.850Z,6.63
2023-11-22T11:26:56.408Z,10.90
2023-11-22T11:32:02.669Z,6.20
2023-11-22T11:37:06.066Z,7.27
2023-11-22T11:42:17.222Z,6.40
2023-11-22T11:47:23.655Z,7.63
2023-11-22T11:52:27.525Z,8.03
2023-11-22T11:57:33.008Z,8.03
2023-11-22T12:02:37.848Z,7.63
2023-11-22T12:07:41.359Z,7.83
2023-11-22T12:12:48.211Z,8.03
2023-11-22T12:17:55.611Z,9.30
2023-11-22T12:22:59.663Z,8.50
2023-11-22T12:28:03.066Z,9.93
2023-11-22T12:33:09.147Z,9.20
2023-11-22T12:38:13.125Z,8.23
2023-11-22T12:43:17.179Z,9.63
2023-11-22T12:48:26.281Z,7.63
2023-11-22T12:53:29.991Z,9.03
2023-11-22T12:58:35.407Z,8.67
2023-11-22T13:03:40.414Z,9.03
2023-11-22T13:08:44.031Z,10.07
2023-11-22T13:13:48.410Z,9.17
2023-11-22T13:18:53.715Z,9.57
2023-11-22T13:23:57.352Z,8.43
2023-11-22T13:29:00.835Z,8.10
2023-11-22T13:34:06.753Z,9.90
2023-11-22T13:39:10.983Z,8.97
2023-11-22T13:44:14.914Z,8.07
2023-11-22T13:49:21.536Z,8.83
2023-11-22T13:54:25.005Z,8.50
2023-11-22T13:59:29.955Z,10.07
2023-11-22T14:04:35.473Z,7.27
2023-11-22T14:09:38.946Z,9.33
2023-11-22T14:14:42.452Z,9.50
2023-11-22T14:19:53.473Z,9.13
2023-11-22T14:24:58.286Z,8.27
2023-11-22T14:30:03.302Z,8.13
2023-11-22T14:35:09.030Z,8.77
2023-11-22T14:40:15.276Z,12.20
2023-11-22T14:45:21.313Z,10.27
2023-11-22T14:50:35.426Z,9.53
2023-11-22T15:08:45.334Z,9.80
2023-11-22T15:49:05.054Z,9.07
2023-11-22T16:01:17.506Z,9.00
2023-11-22T16:07:05.054Z,9.77
2023-11-22T16:12:11.146Z,9.73
2023-11-22T16:17:17.010Z,8.87
2023-11-22T16:22:20.547Z,8.27
2023-11-22T16:27:25.173Z,9.20
2023-11-22T16:32:28.585Z,9.10
2023-11-22T16:37:31.951Z,8.40
2023-11-22T16:42:36.811Z,14.40
2023-11-22T16:47:40.234Z,21.90
2023-11-22T16:52:44.338Z,17.30
2023-11-22T16:57:49.685Z,18.20
2023-11-22T17:02:53.634Z,12.17
2023-11-22T17:07:58.221Z,9.30
2023-11-22T17:13:02.816Z,13.40
2023-11-22T17:18:06.790Z,11.87
2023-11-22T17:23:10.876Z,12.43
2023-11-22T17:28:15.807Z,11.00
2023-11-22T17:33:19.645Z,10.70
2023-11-22T17:38:23.010Z,10.53
2023-11-22T17:43:27.777Z,10.20
2023-11-22T17:48:32.970Z,9.70
2023-11-22T17:53:39.021Z,10.47
2023-11-22T17:58:43.704Z,10.50
2023-11-22T18:03:47.971Z,10.13
2023-11-22T18:08:51.582Z,10.20
2023-11-22T18:14:00.121Z,10.13
2023-11-22T18:19:03.609Z,11.03
2023-11-22T18:24:07.702Z,10.60
2023-11-22T18:29:16.471Z,10.80
2023-11-22T18:34:19.967Z,10.50
2023-11-22T18:39:28.295Z,10.63
2023-11-22T18:44:37.644Z,11.20
2023-11-22T18:49:41.118Z,12.13
2023-11-22T18:54:44.388Z,14.63
2023-11-22T18:59:53.444Z,13.47
2023-11-22T19:04:58.575Z,11.47
2023-11-22T19:10:01.968Z,10.87
2023-11-22T19:15:10.322Z,12.97
2023-11-22T19:20:13.960Z,12.00
2023-11-22T19:25:17.843Z,11.27
2023-11-22T19:30:23.016Z,10.03
2023-11-22T19:35:26.706Z,12.10
2023-11-22T19:40:31.020Z,11.63
2023-11-22T19:45:36.940Z,11.83
2023-11-22T19:50:40.566Z,13.47
2023-11-22T19:55:44.830Z,10.63
2023-11-22T20:00:49.664Z,12.30
2023-11-22T20:05:57.640Z,11.07
2023-11-22T20:11:03.829Z,13.57
2023-11-22T20:16:09.271Z,10.23
2023-11-22T20:21:13.437Z,9.80
2023-11-22T20:26:17.009Z,10.87
2023-11-22T20:31:21.922Z,8.30
2023-11-22T20:36:25.387Z,10.07
2023-11-22T20:41:29.896Z,8.53
2023-11-22T20:46:36.694Z,8.63
2023-11-22T20:51:41.683Z,8.97
2023-11-22T20:56:47.851Z,8.17
2023-11-22T21:01:53.086Z,8.07
2023-11-22T21:06:56.543Z,15.30
2023-11-22T21:12:00.005Z,8.40
2023-11-22T21:17:07.519Z,8.67
2023-11-22T21:22:11.681Z,9.43
2023-11-22T21:27:15.131Z,8.53
2023-11-22T21:32:20.381Z,9.17
2023-11-22T21:37:24.495Z,9.93
2023-11-22T21:42:28.152Z,9.50
2023-11-22T21:47:35.090Z,8.80
2023-11-22T21:52:38.447Z,8.30
2023-11-22T21:57:41.820Z,11.43
2023-11-22T22:02:46.785Z,10.80
2023-11-22T22:07:50.191Z,8.00
2023-11-22T22:12:53.829Z,9.30
2023-11-22T22:17:58.589Z,9.33
2023-11-22T22:23:02.270Z,9.13
2023-11-22T22:28:06.041Z,9.20
2023-11-22T22:33:10.962Z,9.43
2023-11-22T22:38:14.346Z,11.20
2023-11-22T22:43:19.244Z,10.87
2023-11-22T22:48:24.262Z,10.90
2023-11-22T22:53:29.301Z,10.97
2023-11-22T22:58:35.863Z,10.00
2023-11-22T23:03:41.755Z,10.60
2023-11-22T23:08:45.841Z,11.23
2023-11-22T23:13:50.330Z,10.67
2023-11-22T23:18:58.254Z,12.47
2023-11-22T23:24:05.969Z,12.20
2023-11-22T23:29:10.711Z,12.27
2023-11-22T23:34:17.713Z,14.37
2023-11-22T23:39:23.053Z,13.27
2023-11-22T23:44:26.763Z,11.73
2023-11-22T23:49:33.219Z,15.83
2023-11-22T23:54:36.826Z,12.80
2023-11-22T23:59:40.463Z,12.17
